sensor_id;sensor_type;location;lat;lon;timestamp;P1;durP1;ratioP1;P2;durP2;ratioP2
57697;SDS011;43531;52.152;6.366;2024-03-07T00:01:18;49.28;;;24.08;;
57697;SDS011;43531;52.152;6.366;2024-03-07T00:09:19;37.80;;;21.90;;
57697;SDS011;43531;52.152;6.366;2024-03-07T00:11:06;40.65;;;20.00;;
57697;SDS011;43531;52.152;6.366;2024-03-07T00:16:43;38.22;;;20.58;;
57697;SDS011;43531;52.152;6.366;2024-03-07T00:24:27;41.15;;;19.55;;
57697;SDS011;43531;52.152;6.366;2024-03-07T00:27:58;38.40;;;17.80;;
57697;SDS011;43531;52.152;6.366;2024-03-07T00:30:04;34.25;;;18.08;;
57697;SDS011;43531;52.152;6.366;2024-03-07T00:31:32;34.20;;;19.13;;
57697;SDS011;43531;52.152;6.366;2024-03-07T00:33:47;30.83;;;17.98;;
57697;SDS011;43531;52.152;6.366;2024-03-07T00:37:25;27.83;;;17.58;;
57697;SDS011;43531;52.152;6.366;2024-03-07T00:39:38;37.70;;;20.02;;
57697;SDS011;43531;52.152;6.366;2024-03-07T00:48:29;37.05;;;21.23;;
57697;SDS011;43531;52.152;6.366;2024-03-07T00:53:18;42.74;;;21.69;;
57697;SDS011;43531;52.152;6.366;2024-03-07T00:55:12;40.65;;;23.38;;
57697;SDS011;43531;52.152;6.366;2024-03-07T00:57:17;38.15;;;22.33;;
57697;SDS011;43531;52.152;6.366;2024-03-07T00:58:58;28.10;;;19.65;;
57697;SDS011;43531;52.152;6.366;2024-03-07T01:00:52;42.10;;;20.48;;
57697;SDS011;43531;52.152;6.366;2024-03-07T01:12:42;31.20;;;20.52;;
57697;SDS011;43531;52.152;6.366;2024-03-07T01:26:31;31.27;;;17.38;;
57697;SDS011;43531;52.152;6.366;2024-03-07T01:39:46;31.23;;;17.75;;
57697;SDS011;43531;52.152;6.366;2024-03-07T01:51:42;31.65;;;16.95;;
57697;SDS011;43531;52.152;6.366;2024-03-07T01:58:26;40.70;;;18.05;;
57697;SDS011;43531;52.152;6.366;2024-03-07T02:00:32;36.08;;;18.65;;
57697;SDS011;43531;52.152;6.366;2024-03-07T02:23:25;27.45;;;16.55;;
57697;SDS011;43531;52.152;6.366;2024-03-07T02:29:42;26.55;;;14.05;;
57697;SDS011;43531;52.152;6.366;2024-03-07T02:35:39;19.17;;;12.32;;
57697;SDS011;43531;52.152;6.366;2024-03-07T02:42:26;24.92;;;15.52;;
57697;SDS011;43531;52.152;6.366;2024-03-07T02:49:33;23.55;;;15.35;;
57697;SDS011;43531;52.152;6.366;2024-03-07T02:50:49;26.92;;;16.10;;
57697;SDS011;43531;52.152;6.366;2024-03-07T02:56:43;23.63;;;15.75;;
57697;SDS011;43531;52.152;6.366;2024-03-07T03:05:48;32.63;;;15.68;;
57697;SDS011;43531;52.152;6.366;2024-03-07T03:10:11;35.92;;;21.38;;
57697;SDS011;43531;52.152;6.366;2024-03-07T03:14:10;28.20;;;16.70;;
57697;SDS011;43531;52.152;6.366;2024-03-07T03:15:18;28.65;;;18.42;;
57697;SDS011;43531;52.152;6.366;2024-03-07T03:16:46;37.38;;;19.15;;
57697;SDS011;43531;52.152;6.366;2024-03-07T03:17:53;42.25;;;21.90;;
57697;SDS011;43531;52.152;6.366;2024-03-07T03:19:48;33.30;;;20.73;;
57697;SDS011;43531;52.152;6.366;2024-03-07T03:22:53;43.42;;;20.88;;
57697;SDS011;43531;52.152;6.366;2024-03-07T03:24:02;46.47;;;23.50;;
57697;SDS011;43531;52.152;6.366;2024-03-07T03:25:31;45.55;;;22.35;;
57697;SDS011;43531;52.152;6.366;2024-03-07T03:28:42;43.13;;;21.00;;
57697;SDS011;43531;52.152;6.366;2024-03-07T03:35:25;38.53;;;21.00;;
57697;SDS011;43531;52.152;6.366;2024-03-07T03:43:09;37.38;;;21.35;;
57697;SDS011;43531;52.152;6.366;2024-03-07T03:44:42;44.10;;;23.25;;
57697;SDS011;43531;52.152;6.366;2024-03-07T03:46:45;40.38;;;21.73;;
57697;SDS011;43531;52.152;6.366;2024-03-07T03:48:20;34.25;;;19.88;;
57697;SDS011;43531;52.152;6.366;2024-03-07T03:49:27;33.50;;;22.48;;
57697;SDS011;43531;52.152;6.366;2024-03-07T03:50:50;39.17;;;21.00;;
57697;SDS011;43531;52.152;6.366;2024-03-07T03:51:43;45.28;;;23.05;;
57697;SDS011;43531;52.152;6.366;2024-03-07T03:53:36;45.05;;;21.83;;
57697;SDS011;43531;52.152;6.366;2024-03-07T03:54:08;41.88;;;23.25;;
57697;SDS011;43531;52.152;6.366;2024-03-07T03:54:40;49.75;;;25.15;;
57697;SDS011;43531;52.152;6.366;2024-03-07T03:55:12;46.95;;;24.50;;
57697;SDS011;43531;52.152;6.366;2024-03-07T03:55:44;45.22;;;27.08;;
57697;SDS011;43531;52.152;6.366;2024-03-07T03:56:15;48.70;;;23.48;;
57697;SDS011;43531;52.152;6.366;2024-03-07T03:56:48;43.83;;;24.55;;
57697;SDS011;43531;52.152;6.366;2024-03-07T03:57:20;51.85;;;26.13;;
57697;SDS011;43531;52.152;6.366;2024-03-07T03:57:51;42.40;;;24.58;;
57697;SDS011;43531;52.152;6.366;2024-03-07T03:58:25;49.65;;;25.02;;
57697;SDS011;43531;52.152;6.366;2024-03-07T03:58:57;56.17;;;27.67;;
57697;SDS011;43531;52.152;6.366;2024-03-07T03:59:29;52.15;;;29.02;;
57697;SDS011;43531;52.152;6.366;2024-03-07T04:00:02;51.10;;;26.65;;
57697;SDS011;43531;52.152;6.366;2024-03-07T04:00:41;47.85;;;27.70;;
57697;SDS011;43531;52.152;6.366;2024-03-07T04:01:13;43.70;;;26.90;;
57697;SDS011;43531;52.152;6.366;2024-03-07T04:01:46;49.33;;;28.77;;
57697;SDS011;43531;52.152;6.366;2024-03-07T04:02:19;52.92;;;31.77;;
57697;SDS011;43531;52.152;6.366;2024-03-07T04:02:51;53.60;;;33.97;;
57697;SDS011;43531;52.152;6.366;2024-03-07T04:03:24;51.88;;;31.77;;
57697;SDS011;43531;52.152;6.366;2024-03-07T04:03:56;59.95;;;35.70;;
57697;SDS011;43531;52.152;6.366;2024-03-07T04:04:28;54.72;;;35.17;;
57697;SDS011;43531;52.152;6.366;2024-03-07T04:04:59;50.88;;;34.03;;
57697;SDS011;43531;52.152;6.366;2024-03-07T04:05:31;53.55;;;35.83;;
57697;SDS011;43531;52.152;6.366;2024-03-07T04:06:04;52.45;;;36.65;;
57697;SDS011;43531;52.152;6.366;2024-03-07T04:06:36;49.53;;;34.17;;
57697;SDS011;43531;52.152;6.366;2024-03-07T04:07:08;53.67;;;32.90;;
57697;SDS011;43531;52.152;6.366;2024-03-07T04:07:40;53.38;;;34.05;;
57697;SDS011;43531;52.152;6.366;2024-03-07T04:08:15;52.15;;;33.30;;
57697;SDS011;43531;52.152;6.366;2024-03-07T04:08:48;49.53;;;32.97;;
57697;SDS011;43531;52.152;6.366;2024-03-07T04:09:19;51.08;;;31.17;;
57697;SDS011;43531;52.152;6.366;2024-03-07T04:09:51;49.75;;;33.58;;
57697;SDS011;43531;52.152;6.366;2024-03-07T04:10:23;59.30;;;34.03;;
57697;SDS011;43531;52.152;6.366;2024-03-07T04:10:54;50.50;;;31.20;;
57697;SDS011;43531;52.152;6.366;2024-03-07T04:11:26;54.78;;;31.83;;
57697;SDS011;43531;52.152;6.366;2024-03-07T04:11:58;49.38;;;33.45;;
57697;SDS011;43531;52.152;6.366;2024-03-07T04:12:30;53.65;;;31.33;;
57697;SDS011;43531;52.152;6.366;2024-03-07T04:13:02;49.80;;;32.78;;
57697;SDS011;43531;52.152;6.366;2024-03-07T04:13:34;43.47;;;30.10;;
57697;SDS011;43531;52.152;6.366;2024-03-07T04:14:06;48.28;;;30.50;;
57697;SDS011;43531;52.152;6.366;2024-03-07T04:14:41;46.78;;;30.30;;
57697;SDS011;43531;52.152;6.366;2024-03-07T04:15:14;50.63;;;30.27;;
57697;SDS011;43531;52.152;6.366;2024-03-07T04:15:50;53.53;;;28.77;;
57697;SDS011;43531;52.152;6.366;2024-03-07T04:16:22;44.08;;;30.40;;
57697;SDS011;43531;52.152;6.366;2024-03-07T04:16:54;48.67;;;30.05;;
57697;SDS011;43531;52.152;6.366;2024-03-07T04:17:28;46.78;;;31.63;;
57697;SDS011;43531;52.152;6.366;2024-03-07T04:18:00;52.25;;;30.40;;
57697;SDS011;43531;52.152;6.366;2024-03-07T04:18:33;42.38;;;29.02;;
57697;SDS011;43531;52.152;6.366;2024-03-07T04:19:05;42.53;;;29.38;;
57697;SDS011;43531;52.152;6.366;2024-03-07T04:19:37;53.97;;;30.67;;
57697;SDS011;43531;52.152;6.366;2024-03-07T04:20:10;47.97;;;31.55;;
57697;SDS011;43531;52.152;6.366;2024-03-07T04:20:42;47.38;;;31.02;;
57697;SDS011;43531;52.152;6.366;2024-03-07T04:21:15;78.75;;;29.08;;
57697;SDS011;43531;52.152;6.366;2024-03-07T04:21:47;50.22;;;29.23;;
57697;SDS011;43531;52.152;6.366;2024-03-07T04:22:19;55.15;;;31.08;;
57697;SDS011;43531;52.152;6.366;2024-03-07T04:22:50;66.97;;;30.42;;
57697;SDS011;43531;52.152;6.366;2024-03-07T04:23:22;103.95;;;30.98;;
57697;SDS011;43531;52.152;6.366;2024-03-07T04:23:54;47.75;;;30.77;;
57697;SDS011;43531;52.152;6.366;2024-03-07T04:24:26;53.40;;;31.83;;
57697;SDS011;43531;52.152;6.366;2024-03-07T04:24:57;49.50;;;31.50;;
57697;SDS011;43531;52.152;6.366;2024-03-07T04:25:29;52.53;;;31.15;;
57697;SDS011;43531;52.152;6.366;2024-03-07T04:26:01;52.80;;;32.10;;
57697;SDS011;43531;52.152;6.366;2024-03-07T04:26:33;48.67;;;32.10;;
57697;SDS011;43531;52.152;6.366;2024-03-07T04:27:06;51.80;;;30.75;;
57697;SDS011;43531;52.152;6.366;2024-03-07T04:27:38;45.20;;;30.05;;
57697;SDS011;43531;52.152;6.366;2024-03-07T04:28:11;51.35;;;32.45;;
57697;SDS011;43531;52.152;6.366;2024-03-07T04:28:43;55.00;;;33.67;;
57697;SDS011;43531;52.152;6.366;2024-03-07T04:29:15;51.97;;;30.58;;
57697;SDS011;43531;52.152;6.366;2024-03-07T04:29:47;45.80;;;30.38;;
57697;SDS011;43531;52.152;6.366;2024-03-07T04:30:20;47.38;;;30.90;;
57697;SDS011;43531;52.152;6.366;2024-03-07T04:30:52;41.78;;;29.65;;
57697;SDS011;43531;52.152;6.366;2024-03-07T04:31:24;54.13;;;31.98;;
57697;SDS011;43531;52.152;6.366;2024-03-07T04:31:56;52.22;;;31.25;;
57697;SDS011;43531;52.152;6.366;2024-03-07T04:32:28;48.03;;;31.13;;
57697;SDS011;43531;52.152;6.366;2024-03-07T04:33:00;43.90;;;31.02;;
57697;SDS011;43531;52.152;6.366;2024-03-07T04:33:32;48.97;;;31.35;;
57697;SDS011;43531;52.152;6.366;2024-03-07T04:34:04;48.60;;;31.55;;
57697;SDS011;43531;52.152;6.366;2024-03-07T04:34:36;48.78;;;31.25;;
57697;SDS011;43531;52.152;6.366;2024-03-07T04:35:08;53.35;;;30.95;;
57697;SDS011;43531;52.152;6.366;2024-03-07T04:35:44;51.63;;;34.05;;
57697;SDS011;43531;52.152;6.366;2024-03-07T04:36:16;67.43;;;30.42;;
57697;SDS011;43531;52.152;6.366;2024-03-07T04:36:48;325.80;;;34.53;;
57697;SDS011;43531;52.152;6.366;2024-03-07T04:37:20;44.95;;;29.02;;
57697;SDS011;43531;52.152;6.366;2024-03-07T04:37:53;69.38;;;29.13;;
57697;SDS011;43531;52.152;6.366;2024-03-07T04:38:24;60.10;;;27.23;;
57697;SDS011;43531;52.152;6.366;2024-03-07T04:38:58;52.03;;;31.55;;
57697;SDS011;43531;52.152;6.366;2024-03-07T04:39:30;65.03;;;28.48;;
57697;SDS011;43531;52.152;6.366;2024-03-07T04:40:05;43.65;;;30.48;;
57697;SDS011;43531;52.152;6.366;2024-03-07T04:40:47;40.97;;;28.08;;
57697;SDS011;43531;52.152;6.366;2024-03-07T04:41:18;49.72;;;29.48;;
57697;SDS011;43531;52.152;6.366;2024-03-07T04:41:51;51.22;;;30.58;;
57697;SDS011;43531;52.152;6.366;2024-03-07T04:42:28;45.38;;;29.55;;
57697;SDS011;43531;52.152;6.366;2024-03-07T04:43:00;42.88;;;28.25;;
57697;SDS011;43531;52.152;6.366;2024-03-07T04:43:31;42.83;;;28.48;;
57697;SDS011;43531;52.152;6.366;2024-03-07T04:44:04;43.60;;;28.38;;
57697;SDS011;43531;52.152;6.366;2024-03-07T04:44:36;43.15;;;28.10;;
57697;SDS011;43531;52.152;6.366;2024-03-07T04:45:09;48.85;;;28.63;;
57697;SDS011;43531;52.152;6.366;2024-03-07T04:45:42;47.95;;;30.42;;
57697;SDS011;43531;52.152;6.366;2024-03-07T04:46:14;268.75;;;33.95;;
57697;SDS011;43531;52.152;6.366;2024-03-07T04:46:45;99.50;;;27.35;;
57697;SDS011;43531;52.152;6.366;2024-03-07T04:47:17;78.78;;;26.55;;
57697;SDS011;43531;52.152;6.366;2024-03-07T04:47:49;53.13;;;31.98;;
57697;SDS011;43531;52.152;6.366;2024-03-07T04:48:21;56.17;;;33.78;;
57697;SDS011;43531;52.152;6.366;2024-03-07T04:48:54;49.17;;;31.08;;
57697;SDS011;43531;52.152;6.366;2024-03-07T04:49:27;41.58;;;29.42;;
57697;SDS011;43531;52.152;6.366;2024-03-07T04:49:59;132.93;;;30.42;;
57697;SDS011;43531;52.152;6.366;2024-03-07T04:50:31;53.60;;;27.30;;
57697;SDS011;43531;52.152;6.366;2024-03-07T04:51:03;39.65;;;27.13;;
57697;SDS011;43531;52.152;6.366;2024-03-07T04:51:35;44.00;;;27.92;;
57697;SDS011;43531;52.152;6.366;2024-03-07T04:52:11;39.17;;;26.63;;
57697;SDS011;43531;52.152;6.366;2024-03-07T04:52:43;44.55;;;29.38;;
57697;SDS011;43531;52.152;6.366;2024-03-07T04:53:15;44.63;;;29.20;;
57697;SDS011;43531;52.152;6.366;2024-03-07T04:53:47;38.97;;;27.10;;
57697;SDS011;43531;52.152;6.366;2024-03-07T04:54:19;41.13;;;27.88;;
57697;SDS011;43531;52.152;6.366;2024-03-07T04:54:51;44.33;;;28.67;;
57697;SDS011;43531;52.152;6.366;2024-03-07T04:55:23;41.08;;;28.08;;
57697;SDS011;43531;52.152;6.366;2024-03-07T04:55:55;39.90;;;29.00;;
57697;SDS011;43531;52.152;6.366;2024-03-07T04:56:27;46.72;;;30.80;;
57697;SDS011;43531;52.152;6.366;2024-03-07T04:56:59;48.92;;;29.42;;
57697;SDS011;43531;52.152;6.366;2024-03-07T04:57:31;44.92;;;30.35;;
57697;SDS011;43531;52.152;6.366;2024-03-07T04:58:02;45.40;;;28.88;;
57697;SDS011;43531;52.152;6.366;2024-03-07T04:58:35;40.08;;;28.30;;
57697;SDS011;43531;52.152;6.366;2024-03-07T04:59:07;38.10;;;26.02;;
57697;SDS011;43531;52.152;6.366;2024-03-07T04:59:38;38.92;;;28.00;;
57697;SDS011;43531;52.152;6.366;2024-03-07T05:00:11;44.28;;;26.52;;
57697;SDS011;43531;52.152;6.366;2024-03-07T05:00:47;43.38;;;27.30;;
57697;SDS011;43531;52.152;6.366;2024-03-07T05:01:20;42.15;;;28.48;;
57697;SDS011;43531;52.152;6.366;2024-03-07T05:01:52;39.88;;;28.25;;
57697;SDS011;43531;52.152;6.366;2024-03-07T05:02:23;42.90;;;29.60;;
57697;SDS011;43531;52.152;6.366;2024-03-07T05:02:55;47.13;;;29.10;;
57697;SDS011;43531;52.152;6.366;2024-03-07T05:03:28;45.47;;;29.48;;
57697;SDS011;43531;52.152;6.366;2024-03-07T05:04:01;43.40;;;29.38;;
57697;SDS011;43531;52.152;6.366;2024-03-07T05:04:34;43.97;;;28.48;;
57697;SDS011;43531;52.152;6.366;2024-03-07T05:05:07;44.40;;;30.50;;
57697;SDS011;43531;52.152;6.366;2024-03-07T05:05:39;40.30;;;26.90;;
57697;SDS011;43531;52.152;6.366;2024-03-07T05:06:12;40.15;;;27.65;;
57697;SDS011;43531;52.152;6.366;2024-03-07T05:06:44;40.55;;;27.13;;
57697;SDS011;43531;52.152;6.366;2024-03-07T05:07:19;41.72;;;28.02;;
57697;SDS011;43531;52.152;6.366;2024-03-07T05:07:51;36.95;;;25.58;;
57697;SDS011;43531;52.152;6.366;2024-03-07T05:08:23;45.70;;;29.08;;
57697;SDS011;43531;52.152;6.366;2024-03-07T05:08:55;40.95;;;27.15;;
57697;SDS011;43531;52.152;6.366;2024-03-07T05:09:27;37.75;;;28.02;;
57697;SDS011;43531;52.152;6.366;2024-03-07T05:10:00;47.13;;;28.88;;
57697;SDS011;43531;52.152;6.366;2024-03-07T05:10:32;42.00;;;28.10;;
57697;SDS011;43531;52.152;6.366;2024-03-07T05:11:04;46.70;;;29.05;;
57697;SDS011;43531;52.152;6.366;2024-03-07T05:11:36;40.65;;;29.48;;
57697;SDS011;43531;52.152;6.366;2024-03-07T05:12:08;48.53;;;30.90;;
57697;SDS011;43531;52.152;6.366;2024-03-07T05:12:40;41.40;;;29.05;;
57697;SDS011;43531;52.152;6.366;2024-03-07T05:13:12;40.03;;;27.88;;
57697;SDS011;43531;52.152;6.366;2024-03-07T05:13:43;43.50;;;29.77;;
57697;SDS011;43531;52.152;6.366;2024-03-07T05:14:15;45.08;;;30.35;;
57697;SDS011;43531;52.152;6.366;2024-03-07T05:14:48;47.25;;;30.20;;
57697;SDS011;43531;52.152;6.366;2024-03-07T05:15:19;46.85;;;30.15;;
57697;SDS011;43531;52.152;6.366;2024-03-07T05:15:51;47.72;;;30.70;;
57697;SDS011;43531;52.152;6.366;2024-03-07T05:16:24;49.15;;;30.40;;
57697;SDS011;43531;52.152;6.366;2024-03-07T05:16:56;49.65;;;32.22;;
57697;SDS011;43531;52.152;6.366;2024-03-07T05:18:10;50.95;;;27.75;;
57697;SDS011;43531;52.152;6.366;2024-03-07T05:18:44;42.13;;;27.65;;
57697;SDS011;43531;52.152;6.366;2024-03-07T05:19:16;46.88;;;29.33;;
57697;SDS011;43531;52.152;6.366;2024-03-07T05:19:47;49.88;;;31.73;;
57697;SDS011;43531;52.152;6.366;2024-03-07T05:20:21;52.35;;;30.17;;
57697;SDS011;43531;52.152;6.366;2024-03-07T05:20:53;46.95;;;30.48;;
57697;SDS011;43531;52.152;6.366;2024-03-07T05:21:26;55.13;;;32.72;;
57697;SDS011;43531;52.152;6.366;2024-03-07T05:22:07;53.75;;;31.35;;
57697;SDS011;43531;52.152;6.366;2024-03-07T05:22:39;51.75;;;29.60;;
57697;SDS011;43531;52.152;6.366;2024-03-07T05:23:13;52.88;;;31.02;;
57697;SDS011;43531;52.152;6.366;2024-03-07T05:23:48;54.78;;;32.55;;
57697;SDS011;43531;52.152;6.366;2024-03-07T05:24:20;53.53;;;32.13;;
57697;SDS011;43531;52.152;6.366;2024-03-07T05:24:52;50.40;;;32.63;;
57697;SDS011;43531;52.152;6.366;2024-03-07T05:25:25;50.25;;;31.15;;
57697;SDS011;43531;52.152;6.366;2024-03-07T05:25:56;47.42;;;33.03;;
57697;SDS011;43531;52.152;6.366;2024-03-07T05:26:28;55.45;;;32.67;;
57697;SDS011;43531;52.152;6.366;2024-03-07T05:27:12;50.88;;;29.95;;
57697;SDS011;43531;52.152;6.366;2024-03-07T05:27:44;50.97;;;31.95;;
57697;SDS011;43531;52.152;6.366;2024-03-07T05:28:16;45.00;;;29.88;;
57697;SDS011;43531;52.152;6.366;2024-03-07T05:28:48;42.85;;;30.70;;
57697;SDS011;43531;52.152;6.366;2024-03-07T05:29:20;49.65;;;30.88;;
57697;SDS011;43531;52.152;6.366;2024-03-07T05:29:52;50.55;;;33.53;;
57697;SDS011;43531;52.152;6.366;2024-03-07T05:30:24;51.80;;;33.22;;
57697;SDS011;43531;52.152;6.366;2024-03-07T05:30:57;54.67;;;31.40;;
57697;SDS011;43531;52.152;6.366;2024-03-07T05:31:28;55.33;;;34.03;;
57697;SDS011;43531;52.152;6.366;2024-03-07T05:32:22;47.63;;;32.15;;
57697;SDS011;43531;52.152;6.366;2024-03-07T05:32:55;44.08;;;29.80;;
57697;SDS011;43531;52.152;6.366;2024-03-07T05:33:27;43.53;;;28.88;;
57697;SDS011;43531;52.152;6.366;2024-03-07T05:33:59;50.72;;;29.90;;
57697;SDS011;43531;52.152;6.366;2024-03-07T05:34:34;43.28;;;29.55;;
57697;SDS011;43531;52.152;6.366;2024-03-07T05:35:12;42.05;;;30.05;;
57697;SDS011;43531;52.152;6.366;2024-03-07T05:35:44;45.42;;;29.13;;
57697;SDS011;43531;52.152;6.366;2024-03-07T05:36:16;42.08;;;27.48;;
57697;SDS011;43531;52.152;6.366;2024-03-07T05:36:47;44.03;;;28.50;;
57697;SDS011;43531;52.152;6.366;2024-03-07T05:37:19;43.25;;;29.77;;
57697;SDS011;43531;52.152;6.366;2024-03-07T05:37:55;39.05;;;26.80;;
57697;SDS011;43531;52.152;6.366;2024-03-07T05:38:28;39.90;;;27.70;;
57697;SDS011;43531;52.152;6.366;2024-03-07T05:39:00;44.53;;;29.00;;
57697;SDS011;43531;52.152;6.366;2024-03-07T05:39:33;39.88;;;26.05;;
57697;SDS011;43531;52.152;6.366;2024-03-07T05:40:05;42.53;;;28.10;;
57697;SDS011;43531;52.152;6.366;2024-03-07T05:40:39;41.90;;;28.70;;
57697;SDS011;43531;52.152;6.366;2024-03-07T05:41:11;46.35;;;29.85;;
57697;SDS011;43531;52.152;6.366;2024-03-07T05:41:44;45.00;;;29.77;;
57697;SDS011;43531;52.152;6.366;2024-03-07T05:42:17;46.90;;;29.40;;
57697;SDS011;43531;52.152;6.366;2024-03-07T05:42:49;39.88;;;29.88;;
57697;SDS011;43531;52.152;6.366;2024-03-07T05:43:21;43.60;;;29.40;;
57697;SDS011;43531;52.152;6.366;2024-03-07T05:43:52;44.38;;;29.75;;
57697;SDS011;43531;52.152;6.366;2024-03-07T05:44:24;46.97;;;31.58;;
57697;SDS011;43531;52.152;6.366;2024-03-07T05:44:56;46.33;;;30.45;;
57697;SDS011;43531;52.152;6.366;2024-03-07T05:45:28;44.53;;;29.52;;
57697;SDS011;43531;52.152;6.366;2024-03-07T05:46:00;50.65;;;31.27;;
57697;SDS011;43531;52.152;6.366;2024-03-07T05:46:32;44.65;;;30.40;;
57697;SDS011;43531;52.152;6.366;2024-03-07T05:47:03;41.92;;;29.10;;
57697;SDS011;43531;52.152;6.366;2024-03-07T05:47:36;45.70;;;30.13;;
57697;SDS011;43531;52.152;6.366;2024-03-07T05:48:14;46.45;;;30.25;;
57697;SDS011;43531;52.152;6.366;2024-03-07T05:48:47;48.10;;;30.98;;
57697;SDS011;43531;52.152;6.366;2024-03-07T05:49:23;44.17;;;28.60;;
57697;SDS011;43531;52.152;6.366;2024-03-07T05:49:55;43.13;;;30.45;;
57697;SDS011;43531;52.152;6.366;2024-03-07T05:50:26;45.28;;;31.13;;
57697;SDS011;43531;52.152;6.366;2024-03-07T05:50:59;46.70;;;30.08;;
57697;SDS011;43531;52.152;6.366;2024-03-07T05:51:31;46.88;;;31.20;;
57697;SDS011;43531;52.152;6.366;2024-03-07T05:52:04;43.22;;;30.70;;
57697;SDS011;43531;52.152;6.366;2024-03-07T05:52:37;46.35;;;29.60;;
57697;SDS011;43531;52.152;6.366;2024-03-07T05:53:08;42.42;;;29.58;;
57697;SDS011;43531;52.152;6.366;2024-03-07T05:53:40;47.90;;;30.98;;
57697;SDS011;43531;52.152;6.366;2024-03-07T05:54:12;46.40;;;30.98;;
57697;SDS011;43531;52.152;6.366;2024-03-07T05:54:45;50.17;;;30.38;;
57697;SDS011;43531;52.152;6.366;2024-03-07T05:55:16;43.58;;;29.88;;
57697;SDS011;43531;52.152;6.366;2024-03-07T05:55:50;48.83;;;30.95;;
57697;SDS011;43531;52.152;6.366;2024-03-07T05:56:22;42.38;;;29.92;;
57697;SDS011;43531;52.152;6.366;2024-03-07T05:56:54;47.80;;;31.65;;
57697;SDS011;43531;52.152;6.366;2024-03-07T05:57:26;47.38;;;31.63;;
57697;SDS011;43531;52.152;6.366;2024-03-07T05:57:57;49.05;;;32.55;;
57697;SDS011;43531;52.152;6.366;2024-03-07T05:58:29;54.45;;;34.13;;
57697;SDS011;43531;52.152;6.366;2024-03-07T05:59:04;48.45;;;32.60;;
57697;SDS011;43531;52.152;6.366;2024-03-07T05:59:37;51.83;;;33.15;;
57697;SDS011;43531;52.152;6.366;2024-03-07T06:00:10;45.28;;;31.10;;
57697;SDS011;43531;52.152;6.366;2024-03-07T06:00:43;48.17;;;33.08;;
57697;SDS011;43531;52.152;6.366;2024-03-07T06:01:18;54.55;;;34.28;;
57697;SDS011;43531;52.152;6.366;2024-03-07T06:01:52;50.58;;;33.35;;
57697;SDS011;43531;52.152;6.366;2024-03-07T06:02:25;51.00;;;34.78;;
57697;SDS011;43531;52.152;6.366;2024-03-07T06:02:57;51.88;;;34.15;;
57697;SDS011;43531;52.152;6.366;2024-03-07T06:03:29;48.42;;;32.88;;
57697;SDS011;43531;52.152;6.366;2024-03-07T06:04:01;47.22;;;32.05;;
57697;SDS011;43531;52.152;6.366;2024-03-07T06:04:33;47.90;;;33.47;;
57697;SDS011;43531;52.152;6.366;2024-03-07T06:05:06;55.08;;;32.85;;
57697;SDS011;43531;52.152;6.366;2024-03-07T06:05:41;51.35;;;31.85;;
57697;SDS011;43531;52.152;6.366;2024-03-07T06:06:14;48.65;;;31.77;;
57697;SDS011;43531;52.152;6.366;2024-03-07T06:06:48;51.63;;;32.20;;
57697;SDS011;43531;52.152;6.366;2024-03-07T06:07:20;52.05;;;32.78;;
57697;SDS011;43531;52.152;6.366;2024-03-07T06:07:52;52.67;;;33.60;;
57697;SDS011;43531;52.152;6.366;2024-03-07T06:08:24;45.00;;;30.40;;
57697;SDS011;43531;52.152;6.366;2024-03-07T06:08:56;45.88;;;31.20;;
57697;SDS011;43531;52.152;6.366;2024-03-07T06:09:28;49.60;;;32.80;;
57697;SDS011;43531;52.152;6.366;2024-03-07T06:10:00;46.28;;;32.42;;
57697;SDS011;43531;52.152;6.366;2024-03-07T06:10:31;51.35;;;32.45;;
57697;SDS011;43531;52.152;6.366;2024-03-07T06:11:03;47.72;;;31.05;;
57697;SDS011;43531;52.152;6.366;2024-03-07T06:11:38;51.67;;;31.85;;
57697;SDS011;43531;52.152;6.366;2024-03-07T06:12:13;43.30;;;29.88;;
57697;SDS011;43531;52.152;6.366;2024-03-07T06:12:57;47.35;;;32.45;;
57697;SDS011;43531;52.152;6.366;2024-03-07T06:13:41;45.38;;;30.23;;
57697;SDS011;43531;52.152;6.366;2024-03-07T06:14:13;47.88;;;32.35;;
57697;SDS011;43531;52.152;6.366;2024-03-07T06:14:46;51.75;;;31.98;;
57697;SDS011;43531;52.152;6.366;2024-03-07T06:15:18;49.97;;;31.98;;
57697;SDS011;43531;52.152;6.366;2024-03-07T06:15:52;50.15;;;33.75;;
57697;SDS011;43531;52.152;6.366;2024-03-07T06:16:23;91.07;;;33.97;;
57697;SDS011;43531;52.152;6.366;2024-03-07T06:16:55;42.65;;;29.67;;
57697;SDS011;43531;52.152;6.366;2024-03-07T06:17:29;44.55;;;30.15;;
57697;SDS011;43531;52.152;6.366;2024-03-07T06:18:01;48.38;;;31.90;;
57697;SDS011;43531;52.152;6.366;2024-03-07T06:18:33;45.55;;;31.73;;
57697;SDS011;43531;52.152;6.366;2024-03-07T06:19:05;47.83;;;31.80;;
57697;SDS011;43531;52.152;6.366;2024-03-07T06:19:42;47.17;;;30.65;;
57697;SDS011;43531;52.152;6.366;2024-03-07T06:20:13;47.80;;;31.42;;
57697;SDS011;43531;52.152;6.366;2024-03-07T06:20:54;53.47;;;31.98;;
57697;SDS011;43531;52.152;6.366;2024-03-07T06:21:26;44.25;;;30.00;;
57697;SDS011;43531;52.152;6.366;2024-03-07T06:21:58;44.55;;;31.15;;
57697;SDS011;43531;52.152;6.366;2024-03-07T06:22:30;46.70;;;33.35;;
57697;SDS011;43531;52.152;6.366;2024-03-07T06:23:02;44.03;;;30.98;;
57697;SDS011;43531;52.152;6.366;2024-03-07T06:23:36;44.63;;;29.13;;
57697;SDS011;43531;52.152;6.366;2024-03-07T06:24:08;44.58;;;31.73;;
57697;SDS011;43531;52.152;6.366;2024-03-07T06:24:42;46.85;;;32.17;;
57697;SDS011;43531;52.152;6.366;2024-03-07T06:25:14;46.85;;;30.73;;
57697;SDS011;43531;52.152;6.366;2024-03-07T06:25:50;45.05;;;30.48;;
57697;SDS011;43531;52.152;6.366;2024-03-07T06:26:22;44.60;;;32.13;;
57697;SDS011;43531;52.152;6.366;2024-03-07T06:27:08;43.05;;;29.42;;
57697;SDS011;43531;52.152;6.366;2024-03-07T06:27:48;44.42;;;32.25;;
57697;SDS011;43531;52.152;6.366;2024-03-07T06:28:20;43.85;;;30.80;;
57697;SDS011;43531;52.152;6.366;2024-03-07T06:28:52;43.22;;;30.02;;
57697;SDS011;43531;52.152;6.366;2024-03-07T06:29:24;48.85;;;31.90;;
57697;SDS011;43531;52.152;6.366;2024-03-07T06:29:55;46.25;;;30.35;;
57697;SDS011;43531;52.152;6.366;2024-03-07T06:30:27;49.72;;;33.63;;
57697;SDS011;43531;52.152;6.366;2024-03-07T06:30:59;45.35;;;29.67;;
57697;SDS011;43531;52.152;6.366;2024-03-07T06:31:31;42.85;;;31.45;;
57697;SDS011;43531;52.152;6.366;2024-03-07T06:32:03;42.53;;;31.60;;
57697;SDS011;43531;52.152;6.366;2024-03-07T06:32:35;42.53;;;30.80;;
57697;SDS011;43531;52.152;6.366;2024-03-07T06:33:09;43.38;;;32.83;;
57697;SDS011;43531;52.152;6.366;2024-03-07T06:33:41;49.63;;;32.38;;
57697;SDS011;43531;52.152;6.366;2024-03-07T06:34:14;48.97;;;31.48;;
57697;SDS011;43531;52.152;6.366;2024-03-07T06:34:46;44.67;;;31.13;;
57697;SDS011;43531;52.152;6.366;2024-03-07T06:35:17;49.03;;;31.10;;
57697;SDS011;43531;52.152;6.366;2024-03-07T06:35:53;40.53;;;31.10;;
57697;SDS011;43531;52.152;6.366;2024-03-07T06:36:27;47.78;;;31.45;;
57697;SDS011;43531;52.152;6.366;2024-03-07T06:36:59;45.72;;;31.17;;
57697;SDS011;43531;52.152;6.366;2024-03-07T06:37:31;48.00;;;30.27;;
57697;SDS011;43531;52.152;6.366;2024-03-07T06:38:03;48.33;;;32.17;;
57697;SDS011;43531;52.152;6.366;2024-03-07T06:38:35;44.28;;;30.75;;
57697;SDS011;43531;52.152;6.366;2024-03-07T06:39:07;48.55;;;32.50;;